createdAt,value
2017-08-27T00:00:12.771Z,19.75
2017-08-27T00:01:18.623Z,20.67
2017-08-27T00:02:24.862Z,19.65
2017-08-27T00:03:30.936Z,20.00
2017-08-27T00:04:37.935Z,20.55
2017-08-27T00:05:47.106Z,20.75
2017-08-27T00:06:53.180Z,21.48
2017-08-27T00:07:59.427Z,20.55
2017-08-27T00:09:04.598Z,20.65
2017-08-27T00:10:11.598Z,21.95
2017-08-27T00:11:18.555Z,20.70
2017-08-27T00:12:24.623Z,21.85
2017-08-27T00:13:31.642Z,19.62
2017-08-27T00:14:38.187Z,21.00
2017-08-27T00:15:44.363Z,20.30
2017-08-27T00:16:51.619Z,21.75
2017-08-27T00:17:57.670Z,20.65
2017-08-27T00:19:03.751Z,22.13
2017-08-27T00:20:10.009Z,21.10
2017-08-27T00:21:17.910Z,21.10
2017-08-27T00:22:24.183Z,20.90
2017-08-27T00:23:31.343Z,20.80
2017-08-27T00:24:37.426Z,21.83
2017-08-27T00:25:44.605Z,20.30
2017-08-27T00:26:50.689Z,22.70
2017-08-27T00:28:02.835Z,21.60
2017-08-27T00:29:10.270Z,20.77
2017-08-27T00:30:17.373Z,21.25
2017-08-27T00:31:24.119Z,22.73
2017-08-27T00:32:30.327Z,22.00
2017-08-27T00:33:36.425Z,22.20
2017-08-27T00:34:42.506Z,21.40
2017-08-27T00:35:48.669Z,22.40
2017-08-27T00:36:55.075Z,21.77
2017-08-27T00:38:01.192Z,20.73
2017-08-27T00:39:07.243Z,23.70
2017-08-27T00:40:13.368Z,23.40
2017-08-27T00:41:19.079Z,22.52
2017-08-27T00:42:26.091Z,21.83
2017-08-27T00:43:33.851Z,22.58
2017-08-27T00:44:39.922Z,20.75
2017-08-27T00:45:46.031Z,21.62
2017-08-27T00:46:52.305Z,22.83
2017-08-27T00:47:57.662Z,22.17
2017-08-27T00:49:03.773Z,22.10
2017-08-27T00:50:10.698Z,21.75
2017-08-27T00:51:17.668Z,22.20
2017-08-27T00:52:23.714Z,24.67
2017-08-27T00:53:30.211Z,21.52
2017-08-27T00:54:36.280Z,22.42
2017-08-27T00:55:42.383Z,22.37
2017-08-27T00:56:48.435Z,20.60
2017-08-27T00:57:56.245Z,20.62
2017-08-27T00:59:03.467Z,23.25
2017-08-27T01:00:10.538Z,20.40
2017-08-27T01:01:16.483Z,20.58
2017-08-27T01:02:22.434Z,22.80
2017-08-27T01:03:29.493Z,23.10
2017-08-27T01:04:35.044Z,23.05
2017-08-27T01:05:40.430Z,23.42
2017-08-27T01:06:45.558Z,21.80
2017-08-27T01:07:51.664Z,22.67
2017-08-27T01:08:58.460Z,23.90
2017-08-27T01:10:05.792Z,22.33
2017-08-27T01:11:12.596Z,23.65
2017-08-27T01:12:19.575Z,23.10
2017-08-27T01:13:27.603Z,24.15
2017-08-27T01:14:33.912Z,21.73
2017-08-27T01:15:40.058Z,24.40
2017-08-27T01:16:46.130Z,24.10
2017-08-27T01:17:55.432Z,25.45
2017-08-27T01:19:02.380Z,24.63
2017-08-27T01:20:08.185Z,24.77
2017-08-27T01:21:13.672Z,24.37
2017-08-27T01:22:19.185Z,23.90
2017-08-27T01:23:25.404Z,24.77
2017-08-27T01:24:30.758Z,23.58
2017-08-27T01:25:36.431Z,24.87
2017-08-27T01:26:44.303Z,24.73
2017-08-27T01:27:52.174Z,24.50
2017-08-27T01:28:58.270Z,25.73
2017-08-27T01:30:04.159Z,25.27
2017-08-27T01:31:11.888Z,25.25
2017-08-27T01:32:18.958Z,25.25
2017-08-27T01:33:25.015Z,26.73
2017-08-27T01:34:31.159Z,24.08
2017-08-27T01:35:37.679Z,24.55
2017-08-27T01:36:43.644Z,26.25
2017-08-27T01:37:49.740Z,24.37
2017-08-27T01:38:56.097Z,25.70
2017-08-27T01:40:03.260Z,25.60
2017-08-27T01:41:09.361Z,24.90
2017-08-27T01:42:15.444Z,27.37
2017-08-27T01:43:21.499Z,26.52
2017-08-27T01:44:29.183Z,26.37
2017-08-27T01:45:36.535Z,27.77
2017-08-27T01:46:44.040Z,29.73
2017-08-27T01:47:51.358Z,26.40
2017-08-27T01:48:57.519Z,27.65
2017-08-27T01:50:03.724Z,27.48
2017-08-27T01:51:09.768Z,27.75
2017-08-27T01:52:17.454Z,26.73
2017-08-27T01:53:24.207Z,27.75
2017-08-27T01:54:30.989Z,27.65
2017-08-27T01:55:37.083Z,27.95
2017-08-27T01:56:43.137Z,28.65
2017-08-27T01:57:51.607Z,26.77
2017-08-27T01:58:57.802Z,28.62
2017-08-27T02:00:03.867Z,27.60
2017-08-27T02:01:10.863Z,28.77
2017-08-27T02:02:18.477Z,29.20
2017-08-27T02:03:25.243Z,27.42
2017-08-27T02:04:31.290Z,28.65
2017-08-27T02:05:37.336Z,27.25
2017-08-27T02:06:44.266Z,29.17
2017-08-27T02:07:50.430Z,27.45
2017-08-27T02:08:57.302Z,29.67
2017-08-27T02:10:04.026Z,29.30
2017-08-27T02:11:10.286Z,27.87
2017-08-27T02:12:16.479Z,28.33
2017-08-27T02:13:23.310Z,27.90
2017-08-27T02:14:30.364Z,29.87
2017-08-27T02:15:36.477Z,28.90
2017-08-27T02:16:42.530Z,29.52
2017-08-27T02:17:48.604Z,29.48
2017-08-27T02:18:54.683Z,28.15
2017-08-27T02:20:00.736Z,28.45
2017-08-27T02:21:06.804Z,28.38
2017-08-27T02:22:12.492Z,27.45
2017-08-27T02:23:18.570Z,30.17
2017-08-27T02:24:24.650Z,29.85
2017-08-27T02:25:30.727Z,30.70
2017-08-27T02:26:36.777Z,29.58
2017-08-27T02:27:42.817Z,31.08
2017-08-27T02:28:48.990Z,31.05
2017-08-27T02:29:55.066Z,29.63
2017-08-27T02:31:01.116Z,31.30
2017-08-27T02:32:07.170Z,30.83
2017-08-27T02:33:13.230Z,30.35
2017-08-27T02:34:19.345Z,31.45
2017-08-27T02:35:25.400Z,29.65
2017-08-27T02:36:31.462Z,31.90
2017-08-27T02:37:37.542Z,31.48
2017-08-27T02:38:43.598Z,30.08
2017-08-27T02:39:49.763Z,31.20
2017-08-27T02:40:55.847Z,31.75
2017-08-27T02:42:01.885Z,30.80
2017-08-27T02:43:07.959Z,32.33
2017-08-27T02:44:14.008Z,33.60
2017-08-27T02:45:20.093Z,30.23
2017-08-27T02:46:26.150Z,31.50
2017-08-27T02:47:32.202Z,33.13
2017-08-27T02:48:38.084Z,32.75
2017-08-27T02:49:44.135Z,31.35
2017-08-27T02:50:50.256Z,32.22
2017-08-27T02:51:56.301Z,33.75
2017-08-27T02:53:02.351Z,33.60
2017-08-27T02:54:08.396Z,30.98
2017-08-27T02:55:15.311Z,30.88
2017-08-27T02:56:21.400Z,31.52
2017-08-27T02:57:27.449Z,31.62
2017-08-27T02:58:34.439Z,33.17
2017-08-27T02:59:41.570Z,32.80
2017-08-27T03:00:47.606Z,32.00
2017-08-27T03:01:54.400Z,31.00
2017-08-27T03:03:00.476Z,31.73
2017-08-27T03:04:06.544Z,29.80
2017-08-27T03:05:12.595Z,31.48
2017-08-27T03:06:18.646Z,31.33
2017-08-27T03:07:24.730Z,32.70
2017-08-27T03:08:30.803Z,31.60
2017-08-27T03:09:36.847Z,29.55
2017-08-27T03:10:42.898Z,30.88
2017-08-27T03:11:49.011Z,30.75
2017-08-27T03:12:55.116Z,31.87
2017-08-27T03:14:02.063Z,32.33
2017-08-27T03:15:08.122Z,32.33
2017-08-27T03:16:14.189Z,32.30
2017-08-27T03:17:20.242Z,30.67
2017-08-27T03:18:26.322Z,32.67
2017-08-27T03:19:32.356Z,33.35
2017-08-27T03:20:38.423Z,31.48
2017-08-27T03:21:44.459Z,31.80
2017-08-27T03:22:50.528Z,33.65
2017-08-27T03:23:56.671Z,30.75
2017-08-27T03:25:02.706Z,31.40
2017-08-27T03:26:08.762Z,33.88
2017-08-27T03:27:14.802Z,33.97
2017-08-27T03:28:21.780Z,33.38
2017-08-27T03:29:27.863Z,31.15
2017-08-27T03:30:33.913Z,32.63
2017-08-27T03:31:39.953Z,32.47
2017-08-27T03:32:46.005Z,31.98
2017-08-27T03:33:52.051Z,31.15
2017-08-27T03:34:58.140Z,33.72
2017-08-27T03:36:04.208Z,32.20
2017-08-27T03:37:10.312Z,33.70
2017-08-27T03:38:16.363Z,33.22
2017-08-27T03:39:22.416Z,34.53
2017-08-27T03:40:28.504Z,32.83
2017-08-27T03:41:35.455Z,34.38
2017-08-27T03:42:41.505Z,31.52
2017-08-27T03:43:47.543Z,31.80
2017-08-27T03:44:53.592Z,33.10
2017-08-27T03:45:59.696Z,32.83
2017-08-27T03:47:05.734Z,33.08
2017-08-27T03:48:11.794Z,31.25
2017-08-27T03:49:17.843Z,31.08
2017-08-27T03:50:23.892Z,32.05
2017-08-27T03:51:29.793Z,32.30
2017-08-27T03:52:35.853Z,33.47
2017-08-27T03:53:41.918Z,35.35
2017-08-27T03:54:47.980Z,33.75
2017-08-27T03:55:53.868Z,35.13
2017-08-27T03:56:59.786Z,35.33
2017-08-27T03:58:05.858Z,34.33
2017-08-27T03:59:11.915Z,34.20
2017-08-27T04:00:17.980Z,33.97
2017-08-27T04:01:24.049Z,32.88
2017-08-27T04:02:30.143Z,36.13
2017-08-27T04:03:36.188Z,34.20
2017-08-27T04:04:42.068Z,34.35
2017-08-27T04:05:48.141Z,32.63
2017-08-27T04:06:54.203Z,34.20
2017-08-27T04:07:59.948Z,33.33
2017-08-27T04:09:05.483Z,37.15
2017-08-27T04:10:11.436Z,36.15
2017-08-27T04:11:18.213Z,34.45
2017-08-27T04:12:24.263Z,33.70
2017-08-27T04:13:30.363Z,36.00
2017-08-27T04:14:36.417Z,36.03
2017-08-27T04:15:43.378Z,34.92
2017-08-27T04:16:49.514Z,31.77
2017-08-27T04:17:55.587Z,35.20
2017-08-27T04:19:01.660Z,32.80
2017-08-27T04:20:07.713Z,35.58
2017-08-27T04:21:13.778Z,37.58
2017-08-27T04:22:19.844Z,34.88
2017-08-27T04:23:25.899Z,33.88
2017-08-27T04:24:32.025Z,33.20
2017-08-27T04:25:37.883Z,35.10
2017-08-27T04:26:44.818Z,36.00
2017-08-27T04:27:50.879Z,36.85
2017-08-27T04:28:56.919Z,37.78
2017-08-27T04:30:02.844Z,35.10
2017-08-27T04:31:08.911Z,36.83
2017-08-27T04:32:14.963Z,34.50
2017-08-27T04:33:21.011Z,34.10
2017-08-27T04:34:27.078Z,35.22
2017-08-27T04:35:33.164Z,37.20
2017-08-27T04:36:42.134Z,35.22
2017-08-27T04:37:50.610Z,34.13
2017-08-27T04:38:59.773Z,36.05
2017-08-27T04:40:08.835Z,37.20
2017-08-27T04:41:17.463Z,35.10
2017-08-27T04:42:23.883Z,38.88
2017-08-27T04:43:31.114Z,37.45
2017-08-27T04:44:38.902Z,37.97
2017-08-27T04:45:47.535Z,37.95
2017-08-27T04:46:56.071Z,36.35
2017-08-27T04:48:03.646Z,36.15
2017-08-27T04:49:10.954Z,38.45
2017-08-27T04:50:18.158Z,37.08
2017-08-27T04:51:24.254Z,40.58
2017-08-27T04:52:31.645Z,36.97
2017-08-27T04:53:38.409Z,38.38
2017-08-27T04:54:44.581Z,40.35
2017-08-27T04:55:52.658Z,37.65
2017-08-27T04:56:59.934Z,40.55
2017-08-27T04:58:07.276Z,41.30
2017-08-27T04:59:14.812Z,42.45
2017-08-27T05:00:21.806Z,38.88
2017-08-27T05:01:29.712Z,40.25
2017-08-27T05:02:36.258Z,38.80
2017-08-27T05:03:43.426Z,40.15
2017-08-27T05:04:50.110Z,41.63
2017-08-27T05:05:57.838Z,43.13
2017-08-27T05:07:04.423Z,39.95
2017-08-27T05:08:10.470Z,39.58
2017-08-27T05:09:16.552Z,37.38
2017-08-27T05:10:22.603Z,40.28
2017-08-27T05:11:28.643Z,37.97
2017-08-27T05:12:34.686Z,39.75
2017-08-27T05:13:40.740Z,40.75
2017-08-27T05:14:46.831Z,39.70
2017-08-27T05:15:52.883Z,40.72
2017-08-27T05:16:59.821Z,40.22
2017-08-27T05:18:05.859Z,38.00
2017-08-27T05:19:11.931Z,37.92
2017-08-27T05:20:18.042Z,38.45
2017-08-27T05:21:24.102Z,37.53
2017-08-27T05:22:30.161Z,37.00
2017-08-27T05:23:36.199Z,36.55
2017-08-27T05:24:42.289Z,34.75
2017-08-27T05:25:48.373Z,34.83
2017-08-27T05:26:54.435Z,37.95
2017-08-27T05:28:00.488Z,38.35
2017-08-27T05:29:07.439Z,35.75
2017-08-27T05:30:13.491Z,35.45
2017-08-27T05:31:19.589Z,35.17
2017-08-27T05:32:25.678Z,33.70
2017-08-27T05:33:31.732Z,33.28
2017-08-27T05:34:37.783Z,30.83
2017-08-27T05:35:43.953Z,33.78
2017-08-27T05:36:50.178Z,32.22
2017-08-27T05:37:56.088Z,31.40
2017-08-27T05:39:01.973Z,30.95
2017-08-27T05:40:08.722Z,32.42
2017-08-27T05:41:14.847Z,31.33
2017-08-27T05:42:20.957Z,31.12
2017-08-27T05:43:27.074Z,30.40
2017-08-27T05:44:33.108Z,32.03
2017-08-27T05:45:39.159Z,30.85
2017-08-27T05:46:46.167Z,30.92
2017-08-27T05:47:52.244Z,32.17
2017-08-27T05:48:59.134Z,30.50
2017-08-27T05:50:05.228Z,32.00
2017-08-27T05:51:11.296Z,30.80
2017-08-27T05:52:18.171Z,30.60
2017-08-27T05:53:24.246Z,29.12
2017-08-27T05:54:30.274Z,29.95
2017-08-27T05:55:38.042Z,29.70
2017-08-27T05:56:44.267Z,30.55
2017-08-27T05:57:51.522Z,28.12
2017-08-27T05:58:57.598Z,28.83
2017-08-27T06:00:03.713Z,31.10
2017-08-27T06:01:09.779Z,30.52
2017-08-27T06:02:17.655Z,29.50
2017-08-27T06:03:23.763Z,30.60
2017-08-27T06:04:29.830Z,31.80
2017-08-27T06:05:37.216Z,31.35
2017-08-27T06:06:44.478Z,32.30
2017-08-27T06:07:56.418Z,32.03
2017-08-27T06:09:05.821Z,32.88
2017-08-27T06:10:13.967Z,30.50
2017-08-27T06:11:21.510Z,34.75
2017-08-27T06:12:30.156Z,31.08
2017-08-27T06:13:37.107Z,32.55
2017-08-27T06:14:45.802Z,33.42
2017-08-27T06:15:55.091Z,33.25
2017-08-27T06:17:01.153Z,36.35
2017-08-27T06:18:07.018Z,35.53
2017-08-27T06:19:13.070Z,35.58
2017-08-27T06:20:19.429Z,38.58
2017-08-27T06:21:26.758Z,36.67
2017-08-27T06:22:32.926Z,34.50
2017-08-27T06:23:39.802Z,37.33
2017-08-27T06:24:45.867Z,36.17
2017-08-27T06:25:52.029Z,36.40
2017-08-27T06:26:58.096Z,33.83
2017-08-27T06:28:04.202Z,36.03
2017-08-27T06:29:13.331Z,36.35
2017-08-27T06:30:19.414Z,38.25
2017-08-27T06:31:25.612Z,37.00
2017-08-27T06:32:32.134Z,33.88
2017-08-27T06:33:38.515Z,38.45
2017-08-27T06:34:45.912Z,37.65
2017-08-27T06:35:53.767Z,35.35
2017-08-27T06:37:03.569Z,37.55
2017-08-27T06:38:13.269Z,35.30
2017-08-27T06:39:21.631Z,34.22
2017-08-27T06:40:31.100Z,34.97
2017-08-27T06:41:41.238Z,34.28
2017-08-27T06:42:49.267Z,33.85
2017-08-27T06:43:56.490Z,32.17
2017-08-27T06:45:03.580Z,29.05
2017-08-27T06:46:09.731Z,28.77
2017-08-27T06:47:15.796Z,29.80
2017-08-27T06:48:22.154Z,30.23
2017-08-27T06:49:28.715Z,28.80
2017-08-27T06:50:35.567Z,29.02
2017-08-27T06:51:43.611Z,27.50
2017-08-27T06:52:53.944Z,26.62
2017-08-27T06:54:02.221Z,26.62
2017-08-27T06:55:09.740Z,28.20
2017-08-27T06:56:16.637Z,26.33
2017-08-27T06:57:27.696Z,25.77
2017-08-27T06:58:33.877Z,22.83
2017-08-27T06:59:41.442Z,23.30
2017-08-27T07:00:50.546Z,23.27
2017-08-27T07:01:58.389Z,22.37
2017-08-27T07:03:07.656Z,21.90
2017-08-27T07:04:15.989Z,21.15
2017-08-27T07:05:25.711Z,18.50
2017-08-27T07:06:33.545Z,17.67
2017-08-27T07:07:42.963Z,16.20
2017-08-27T07:08:50.444Z,15.65
2017-08-27T07:09:57.712Z,16.02
2017-08-27T07:11:05.411Z,15.88
2017-08-27T07:12:11.504Z,14.15
2017-08-27T07:13:17.566Z,14.85
2017-08-27T07:14:27.006Z,14.80
2017-08-27T07:15:36.906Z,15.07
2017-08-27T07:16:44.786Z,14.20
2017-08-27T07:17:54.236Z,13.30
2017-08-27T07:19:02.423Z,13.85
2017-08-27T07:20:09.958Z,13.27
2017-08-27T07:21:16.652Z,12.73
2017-08-27T07:22:24.338Z,13.25
2017-08-27T07:23:32.874Z,12.73
2017-08-27T07:24:40.372Z,12.95
2017-08-27T07:25:47.823Z,12.85
2017-08-27T07:26:54.915Z,11.75
2017-08-27T07:28:03.158Z,12.95
2017-08-27T07:29:11.010Z,12.65
2017-08-27T07:30:20.033Z,12.40
2017-08-27T07:31:27.703Z,12.77
2017-08-27T07:32:35.298Z,12.68
2017-08-27T07:33:43.039Z,12.35
2017-08-27T07:34:50.790Z,12.65
2017-08-27T07:35:56.901Z,13.75
2017-08-27T07:37:03.857Z,13.30
2017-08-27T07:38:13.403Z,12.65
2017-08-27T07:39:23.427Z,12.65
2017-08-27T07:40:33.885Z,12.52
2017-08-27T07:41:44.393Z,14.45
2017-08-27T07:42:53.928Z,13.10
2017-08-27T07:44:03.715Z,13.27
2017-08-27T07:45:12.921Z,14.85
2017-08-27T07:46:23.213Z,14.30
2017-08-27T07:47:34.690Z,13.43
2017-08-27T07:48:43.550Z,15.05
2017-08-27T07:49:51.971Z,14.80
2017-08-27T07:51:00.598Z,15.85
2017-08-27T07:52:10.558Z,15.85
2017-08-27T07:53:20.246Z,15.30
2017-08-27T07:54:29.545Z,15.50
2017-08-27T07:55:37.833Z,16.87
2017-08-27T07:56:47.981Z,15.35
2017-08-27T07:57:57.872Z,15.40
2017-08-27T07:59:08.146Z,18.23
2017-08-27T08:00:17.013Z,15.60
2017-08-27T08:01:23.809Z,16.10
2017-08-27T08:02:31.614Z,16.23
2017-08-27T08:03:40.906Z,16.98
2017-08-27T08:04:50.004Z,16.95
2017-08-27T08:05:59.623Z,17.25
2017-08-27T08:07:08.491Z,15.18
2017-08-27T08:08:18.285Z,17.00
2017-08-27T08:09:27.088Z,17.42
2017-08-27T08:10:34.973Z,18.02
2017-08-27T08:11:42.011Z,17.90
2017-08-27T08:12:50.905Z,16.55
2017-08-27T08:13:59.888Z,16.90
2017-08-27T08:15:08.335Z,18.05
2017-08-27T08:16:15.158Z,19.55
2017-08-27T08:17:24.336Z,20.62
2017-08-27T08:18:32.014Z,19.33
2017-08-27T08:19:39.569Z,19.73
2017-08-27T08:20:47.696Z,18.10
2017-08-27T08:21:55.197Z,18.23
2017-08-27T08:23:01.598Z,17.73
2017-08-27T08:24:10.831Z,19.33
2017-08-27T08:25:19.806Z,19.15
2017-08-27T08:26:29.259Z,19.08
2017-08-27T08:27:37.524Z,19.67
2017-08-27T08:28:45.873Z,17.80
2017-08-27T08:29:55.182Z,18.60
2017-08-27T08:31:01.956Z,18.40
2017-08-27T08:32:08.901Z,18.33
2017-08-27T08:33:19.362Z,19.17
2017-08-27T08:34:26.970Z,18.20
2017-08-27T08:35:35.486Z,21.92
2017-08-27T08:36:42.908Z,20.98
2017-08-27T08:37:49.571Z,20.77
2017-08-27T08:38:57.225Z,21.10
2017-08-27T08:40:05.653Z,20.83
2017-08-27T08:41:15.356Z,21.98
2017-08-27T08:42:24.616Z,19.73
2017-08-27T08:43:32.514Z,20.55
2017-08-27T08:44:42.231Z,20.92
2017-08-27T08:45:50.235Z,20.95
2017-08-27T08:46:58.422Z,19.70
2017-08-27T08:48:07.856Z,18.90
2017-08-27T08:49:15.893Z,18.75
2017-08-27T08:50:21.939Z,19.67
2017-08-27T08:51:27.980Z,19.10
2017-08-27T08:52:34.025Z,19.83
2017-08-27T08:53:44.416Z,18.55
2017-08-27T08:54:54.916Z,18.58
2017-08-27T08:56:03.625Z,18.30
2017-08-27T08:57:13.924Z,17.80
2017-08-27T08:58:23.167Z,18.55
2017-08-27T08:59:30.586Z,19.10
2017-08-27T09:00:36.641Z,18.90
2017-08-27T09:01:42.735Z,19.00
2017-08-27T09:02:48.806Z,18.70
2017-08-27T09:03:54.763Z,18.35
2017-08-27T09:05:00.843Z,19.60
2017-08-27T09:06:06.947Z,17.05
2017-08-27T09:07:13.024Z,17.00
2017-08-27T09:08:19.066Z,17.35
2017-08-27T09:09:25.194Z,20.45
2017-08-27T09:10:31.259Z,18.17
2017-08-27T09:11:37.349Z,17.50
2017-08-27T09:12:43.413Z,17.80
2017-08-27T09:13:50.037Z,19.67
2017-08-27T09:14:56.145Z,18.60
2017-08-27T09:16:02.221Z,18.98
2017-08-27T09:17:08.328Z,19.77
2017-08-27T09:18:14.456Z,16.95
2017-08-27T09:19:20.402Z,19.70
2017-08-27T09:20:26.501Z,18.80
2017-08-27T09:21:33.031Z,17.83
2017-08-27T09:22:39.431Z,17.33
2017-08-27T09:23:45.930Z,18.70
2017-08-27T09:24:51.998Z,16.90
2017-08-27T09:25:58.109Z,18.55
2017-08-27T09:27:04.191Z,17.27
2017-08-27T09:28:10.290Z,19.10
2017-08-27T09:29:17.448Z,19.52
2017-08-27T09:30:23.515Z,16.83
2017-08-27T09:31:29.626Z,18.48
2017-08-27T09:32:35.571Z,18.52
2017-08-27T09:33:44.070Z,17.45
2017-08-27T09:34:50.826Z,17.85
2017-08-27T09:35:56.947Z,16.75
2017-08-27T09:37:03.014Z,18.50
2017-08-27T09:38:09.115Z,17.12
2017-08-27T09:39:15.209Z,19.45
2017-08-27T09:40:21.271Z,20.02
2017-08-27T09:41:27.380Z,18.25
2017-08-27T09:42:33.484Z,17.50
2017-08-27T09:43:39.580Z,16.35
2017-08-27T09:44:45.644Z,17.45
2017-08-27T09:45:51.731Z,16.50
2017-08-27T09:46:57.847Z,19.45
2017-08-27T09:48:03.935Z,16.95
2017-08-27T09:49:10.242Z,18.30
2017-08-27T09:50:17.918Z,18.67
2017-08-27T09:51:23.979Z,17.08
2017-08-27T09:52:30.972Z,17.35
2017-08-27T09:53:37.493Z,16.55
2017-08-27T09:54:43.585Z,16.02
2017-08-27T09:55:51.462Z,16.08
2017-08-27T09:56:57.631Z,19.20
2017-08-27T09:58:03.753Z,17.80
2017-08-27T09:59:09.823Z,16.92
2017-08-27T10:00:15.933Z,17.12
2017-08-27T10:01:24.220Z,16.80
2017-08-27T10:02:30.374Z,15.15
2017-08-27T10:03:36.528Z,16.33
2017-08-27T10:04:42.603Z,14.32
2017-08-27T10:05:48.671Z,15.20
2017-08-27T10:06:54.475Z,15.52
2017-08-27T10:08:00.557Z,14.65
2017-08-27T10:09:06.675Z,14.85
2017-08-27T10:10:12.765Z,15.95
2017-08-27T10:11:18.684Z,15.20
2017-08-27T10:12:30.426Z,13.85
2017-08-27T10:13:36.484Z,15.25
2017-08-27T10:14:42.632Z,13.40
2017-08-27T10:15:48.721Z,14.20
2017-08-27T10:16:55.801Z,15.43
2017-08-27T10:18:02.074Z,14.07
2017-08-27T10:19:08.207Z,15.27
2017-08-27T10:20:21.954Z,15.02
2017-08-27T10:21:28.038Z,13.93
2017-08-27T10:22:34.140Z,13.68
2017-08-27T10:23:40.235Z,13.77
2017-08-27T10:24:46.333Z,14.85
2017-08-27T10:25:52.521Z,12.73
2017-08-27T10:26:58.611Z,12.55
2017-08-27T10:28:05.043Z,13.50
2017-08-27T10:29:11.201Z,12.85
2017-08-27T10:30:17.266Z,13.70
2017-08-27T10:31:23.374Z,12.85
2017-08-27T10:32:29.502Z,12.70
2017-08-27T10:33:35.583Z,11.70
2017-08-27T10:34:42.837Z,11.88
2017-08-27T10:35:48.904Z,11.30
2017-08-27T10:36:55.024Z,14.60
2017-08-27T10:38:01.083Z,13.77
2017-08-27T10:39:07.159Z,12.80
2017-08-27T10:40:13.220Z,13.27
2017-08-27T10:41:19.516Z,11.73
2017-08-27T10:42:26.559Z,11.98
2017-08-27T10:43:32.664Z,10.25
2017-08-27T10:44:39.508Z,11.60
2017-08-27T10:45:45.619Z,13.75
2017-08-27T10:46:51.715Z,12.02
2017-08-27T10:48:00.580Z,10.40
2017-08-27T10:49:08.737Z,10.80
2017-08-27T10:50:15.114Z,11.25
2017-08-27T10:51:21.448Z,11.12
2017-08-27T10:52:28.060Z,10.73
2017-08-27T10:53:34.999Z,11.57
2017-08-27T10:54:41.110Z,11.90
2017-08-27T10:55:47.248Z,12.15
2017-08-27T10:56:58.133Z,11.57
2017-08-27T10:58:05.165Z,10.70
2017-08-27T10:59:11.808Z,11.05
2017-08-27T11:00:19.516Z,10.98
2017-08-27T11:01:27.159Z,11.23
2017-08-27T11:02:33.810Z,10.60
2017-08-27T11:03:39.919Z,12.05
2017-08-27T11:04:46.331Z,9.90
2017-08-27T11:05:52.420Z,9.75
2017-08-27T11:06:59.664Z,11.00
2017-08-27T11:08:09.237Z,10.70
2017-08-27T11:09:18.872Z,10.00
2017-08-27T11:10:29.673Z,11.02
2017-08-27T11:11:45.342Z,10.68
2017-08-27T11:12:58.352Z,9.85
2017-08-27T11:14:31.416Z,9.23
2017-08-27T11:15:57.384Z,9.30
2017-08-27T11:17:10.458Z,9.30
2017-08-27T11:18:24.804Z,9.40
2017-08-27T11:19:33.246Z,8.95
2017-08-27T11:20:42.246Z,8.60
2017-08-27T11:21:49.964Z,9.48
2017-08-27T11:22:58.569Z,9.27
2017-08-27T11:24:12.508Z,10.25
2017-08-27T11:25:19.110Z,10.23
2017-08-27T11:26:25.531Z,10.75
2017-08-27T11:27:32.767Z,10.02
2017-08-27T11:28:38.812Z,8.73
2017-08-27T11:29:44.876Z,10.05
2017-08-27T11:30:51.028Z,8.80
2017-08-27T11:31:57.091Z,9.05
2017-08-27T11:33:03.177Z,9.15
2017-08-27T11:34:09.259Z,9.43
2017-08-27T11:35:15.308Z,8.60
2017-08-27T11:36:23.772Z,8.93
2017-08-27T11:37:32.950Z,9.10
2017-08-27T11:38:42.927Z,8.50
2017-08-27T11:40:00.290Z,8.77
2017-08-27T11:41:13.371Z,8.73
2017-08-27T11:42:23.304Z,9.05
2017-08-27T11:43:32.822Z,9.57
2017-08-27T11:44:42.184Z,10.82
2017-08-27T11:45:51.627Z,8.68
2017-08-27T11:47:00.576Z,8.30
2017-08-27T11:48:08.126Z,8.45
2017-08-27T11:49:17.677Z,10.18
2017-08-27T11:50:26.568Z,9.75
2017-08-27T11:51:36.191Z,10.07
2017-08-27T11:52:45.872Z,8.05
2017-08-27T11:53:55.223Z,8.90
2017-08-27T11:55:04.849Z,9.55
2017-08-27T11:56:13.477Z,9.82
2017-08-27T11:57:21.962Z,9.18
2017-08-27T11:58:31.456Z,8.95
2017-08-27T11:59:41.442Z,8.57
2017-08-27T12:00:50.133Z,8.40
2017-08-27T12:01:58.329Z,8.82
2017-08-27T12:03:08.984Z,9.55
2017-08-27T12:04:18.565Z,8.63
2017-08-27T12:05:26.816Z,8.63
2017-08-27T12:06:38.984Z,9.70
2017-08-27T12:07:49.276Z,8.50
2017-08-27T12:08:58.705Z,8.40
2017-08-27T12:10:08.134Z,8.35
2017-08-27T12:11:15.807Z,8.43
2017-08-27T12:12:23.089Z,7.85
2017-08-27T12:13:32.676Z,8.00
2017-08-27T12:14:44.022Z,9.25
2017-08-27T12:15:53.924Z,8.75
2017-08-27T12:17:02.946Z,9.13
2017-08-27T12:18:11.832Z,9.65
2017-08-27T12:19:20.016Z,9.73
2017-08-27T12:20:28.473Z,11.10
2017-08-27T12:21:38.781Z,9.43
2017-08-27T12:22:47.750Z,11.07
2017-08-27T12:23:54.771Z,10.48
2017-08-27T12:25:00.842Z,14.32
2017-08-27T12:26:06.915Z,10.70
2017-08-27T12:27:14.610Z,10.57
2017-08-27T12:28:20.507Z,24.37
2017-08-27T12:29:26.602Z,34.67
2017-08-27T12:30:33.770Z,15.68
2017-08-27T12:31:41.213Z,9.13
2017-08-27T12:32:48.217Z,9.10
2017-08-27T12:33:54.296Z,9.85
2017-08-27T12:35:02.138Z,9.68
2017-08-27T12:36:08.512Z,8.30
2017-08-27T12:37:14.583Z,9.18
2017-08-27T12:38:20.680Z,9.07
2017-08-27T12:39:26.730Z,8.88
2017-08-27T12:40:32.788Z,9.27
2017-08-27T12:41:38.836Z,8.40
2017-08-27T12:42:44.911Z,9.30
2017-08-27T12:43:51.139Z,10.10
2017-08-27T12:44:57.267Z,9.30
2017-08-27T12:46:03.337Z,9.10
2017-08-27T12:47:09.420Z,9.35
2017-08-27T12:48:15.482Z,9.50
2017-08-27T12:49:21.596Z,9.60
2017-08-27T12:50:27.733Z,9.20
2017-08-27T12:51:33.794Z,9.70
2017-08-27T12:52:40.367Z,9.05
2017-08-27T12:53:46.728Z,8.00
2017-08-27T12:54:53.043Z,8.68
2017-08-27T12:55:59.663Z,8.68
2017-08-27T12:57:05.758Z,7.18
2017-08-27T12:58:11.813Z,8.85
2017-08-27T12:59:17.899Z,7.78
2017-08-27T13:00:23.611Z,8.10
2017-08-27T13:01:29.475Z,8.68
2017-08-27T13:02:35.539Z,8.30
2017-08-27T13:03:43.186Z,7.72
2017-08-27T13:04:51.125Z,7.32
2017-08-27T13:05:58.005Z,7.70
2017-08-27T13:07:04.096Z,7.00
2017-08-27T13:08:10.251Z,5.70
2017-08-27T13:09:16.321Z,5.95
2017-08-27T13:10:22.443Z,5.72
2017-08-27T13:11:28.490Z,6.80
2017-08-27T13:12:35.484Z,6.45
2017-08-27T13:13:41.635Z,6.20
2017-08-27T13:14:47.687Z,5.70
2017-08-27T13:15:53.818Z,5.65
2017-08-27T13:16:59.876Z,5.70
2017-08-27T13:18:06.983Z,5.68
2017-08-27T13:19:13.941Z,5.43
2017-08-27T13:20:19.976Z,5.60
2017-08-27T13:21:26.070Z,5.00
2017-08-27T13:22:33.983Z,5.22
2017-08-27T13:23:40.051Z,5.03
2017-08-27T13:24:46.086Z,4.85
2017-08-27T13:25:52.180Z,5.30
2017-08-27T13:26:59.167Z,5.10
2017-08-27T13:28:06.167Z,4.97
2017-08-27T13:29:12.021Z,5.45
2017-08-27T13:30:18.148Z,4.75
2017-08-27T13:31:24.067Z,4.57
2017-08-27T13:32:30.122Z,4.90
2017-08-27T13:33:36.214Z,4.82
2017-08-27T13:34:42.296Z,5.10
2017-08-27T13:35:49.238Z,4.97
2017-08-27T13:36:55.454Z,4.65
2017-08-27T13:38:01.757Z,4.65
2017-08-27T13:39:07.780Z,4.75
2017-08-27T13:40:13.837Z,4.75
2017-08-27T13:41:19.892Z,5.40
2017-08-27T13:42:25.999Z,5.25
2017-08-27T13:43:33.003Z,4.43
2017-08-27T13:44:39.063Z,4.37
2017-08-27T13:45:45.150Z,4.60
2017-08-27T13:46:51.293Z,5.43
2017-08-27T13:47:58.276Z,4.75
2017-08-27T13:49:04.330Z,4.87
2017-08-27T13:50:11.214Z,4.30
2017-08-27T13:51:18.104Z,4.80
2017-08-27T13:52:24.260Z,4.30
2017-08-27T13:53:32.004Z,4.25
2017-08-27T13:54:39.673Z,4.30
2017-08-27T13:55:45.717Z,4.40
2017-08-27T13:56:52.738Z,5.10
2017-08-27T13:57:58.998Z,4.12
2017-08-27T13:59:05.134Z,5.05
2017-08-27T14:00:12.854Z,4.85
2017-08-27T14:01:18.917Z,5.43
2017-08-27T14:02:24.984Z,4.78
2017-08-27T14:03:31.055Z,4.93
2017-08-27T14:04:37.185Z,4.60
2017-08-27T14:05:43.267Z,4.97
2017-08-27T14:06:49.355Z,4.53
2017-08-27T14:07:55.428Z,4.80
2017-08-27T14:09:01.284Z,5.00
2017-08-27T14:10:08.573Z,4.72
2017-08-27T14:11:14.702Z,4.93
2017-08-27T14:12:20.793Z,4.70
2017-08-27T14:13:26.908Z,7.03
2017-08-27T14:14:32.965Z,6.03
2017-08-27T14:15:39.438Z,5.55
2017-08-27T14:16:45.510Z,6.20
2017-08-27T14:17:51.583Z,5.62
2017-08-27T14:18:59.270Z,6.22
2017-08-27T14:20:06.175Z,6.25
2017-08-27T14:21:12.946Z,5.87
2017-08-27T14:22:18.989Z,5.47
2017-08-27T14:23:24.870Z,5.53
2017-08-27T14:24:30.723Z,4.97
2017-08-27T14:25:36.652Z,5.18
2017-08-27T14:26:43.750Z,5.05
2017-08-27T14:27:49.911Z,4.85
2017-08-27T14:28:55.985Z,5.53